sensor_id;sensor_type;location;lat;lon;timestamp;P1;durP1;ratioP1;P2;durP2;ratioP2
3831;SDS011;12460;42.662;23.288;2024-03-25T00:05:00;1.00;;;1.00;;
3831;SDS011;12460;42.662;23.288;2024-03-25T00:20:01;0.80;;;0.80;;
3831;SDS011;12460;42.662;23.288;2024-03-25T00:35:06;0.83;;;0.83;;
3831;SDS011;12460;42.662;23.288;2024-03-25T00:50:07;0.80;;;0.80;;
3831;SDS011;12460;42.662;23.288;2024-03-25T01:05:09;0.97;;;0.80;;
3831;SDS011;12460;42.662;23.288;2024-03-25T01:20:10;0.80;;;0.80;;
3831;SDS011;12460;42.662;23.288;2024-03-25T01:35:11;0.80;;;0.80;;
3831;SDS011;12460;42.662;23.288;2024-03-25T01:50:12;1.03;;;1.03;;
3831;SDS011;12460;42.662;23.288;2024-03-25T02:05:17;0.90;;;0.90;;
3831;SDS011;12460;42.662;23.288;2024-03-25T02:20:18;0.77;;;0.77;;
3831;SDS011;12460;42.662;23.288;2024-03-25T02:35:19;0.77;;;0.77;;
3831;SDS011;12460;42.662;23.288;2024-03-25T02:50:23;0.90;;;0.90;;
3831;SDS011;12460;42.662;23.288;2024-03-25T03:05:24;0.90;;;0.90;;
3831;SDS011;12460;42.662;23.288;2024-03-25T03:20:25;0.90;;;0.90;;
3831;SDS011;12460;42.662;23.288;2024-03-25T03:35:26;1.37;;;1.30;;
3831;SDS011;12460;42.662;23.288;2024-03-25T03:50:27;2.05;;;1.95;;
3831;SDS011;12460;42.662;23.288;2024-03-25T04:05:28;2.00;;;1.90;;
3831;SDS011;12460;42.662;23.288;2024-03-25T04:20:40;2.67;;;2.47;;
3831;SDS011;12460;42.662;23.288;2024-03-25T04:35:42;4.00;;;3.20;;
3831;SDS011;12460;42.662;23.288;2024-03-25T04:50:43;5.32;;;4.82;;
3831;SDS011;12460;42.662;23.288;2024-03-25T05:05:44;7.18;;;4.70;;
3831;SDS011;12460;42.662;23.288;2024-03-25T05:20:45;5.72;;;5.20;;
3831;SDS011;12460;42.662;23.288;2024-03-25T05:35:46;8.67;;;5.80;;
3831;SDS011;12460;42.662;23.288;2024-03-25T05:50:56;6.13;;;5.40;;
3831;SDS011;12460;42.662;23.288;2024-03-25T06:06:06;6.83;;;5.53;;
3831;SDS011;12460;42.662;23.288;2024-03-25T06:21:07;10.13;;;6.55;;
3831;SDS011;12460;42.662;23.288;2024-03-25T06:36:07;7.47;;;6.37;;
3831;SDS011;12460;42.662;23.288;2024-03-25T06:51:08;7.57;;;6.87;;
3831;SDS011;12460;42.662;23.288;2024-03-25T07:06:09;7.10;;;6.40;;
3831;SDS011;12460;42.662;23.288;2024-03-25T07:21:10;9.05;;;7.25;;
3831;SDS011;12460;42.662;23.288;2024-03-25T07:36:11;9.43;;;7.43;;
3831;SDS011;12460;42.662;23.288;2024-03-25T07:51:12;6.90;;;6.30;;
3831;SDS011;12460;42.662;23.288;2024-03-25T08:06:13;6.47;;;5.90;;
3831;SDS011;12460;42.662;23.288;2024-03-25T08:21:14;6.87;;;6.27;;
3831;SDS011;12460;42.662;23.288;2024-03-25T08:36:14;7.25;;;6.55;;
3831;SDS011;12460;42.662;23.288;2024-03-25T08:51:15;6.20;;;5.70;;
3831;SDS011;12460;42.662;23.288;2024-03-25T09:06:16;6.40;;;5.80;;
3831;SDS011;12460;42.662;23.288;2024-03-25T09:21:17;7.50;;;5.30;;
3831;SDS011;12460;42.662;23.288;2024-03-25T09:36:18;7.10;;;6.37;;
3831;SDS011;12460;42.662;23.288;2024-03-25T09:51:20;6.27;;;5.43;;
3831;SDS011;12460;42.662;23.288;2024-03-25T10:06:21;5.90;;;5.40;;
3831;SDS011;12460;42.662;23.288;2024-03-25T10:21:22;5.28;;;4.78;;
3831;SDS011;12460;42.662;23.288;2024-03-25T10:36:23;5.00;;;4.60;;
3831;SDS011;12460;42.662;23.288;2024-03-25T10:51:25;5.33;;;4.87;;
3831;SDS011;12460;42.662;23.288;2024-03-25T11:06:27;5.07;;;4.60;;
3831;SDS011;12460;42.662;23.288;2024-03-25T11:21:28;4.95;;;4.28;;
3831;SDS011;12460;42.662;23.288;2024-03-25T11:36:29;4.80;;;4.40;;
3831;SDS011;12460;42.662;23.288;2024-03-25T11:51:31;4.83;;;4.43;;
3831;SDS011;12460;42.662;23.288;2024-03-25T12:06:34;3.70;;;3.50;;
3831;SDS011;12460;42.662;23.288;2024-03-25T12:21:36;3.90;;;3.70;;
3831;SDS011;12460;42.662;23.288;2024-03-25T12:36:38;4.23;;;3.90;;
3831;SDS011;12460;42.662;23.288;2024-03-25T12:51:38;4.22;;;3.55;;
3831;SDS011;12460;42.662;23.288;2024-03-25T13:06:39;4.05;;;3.75;;
3831;SDS011;12460;42.662;23.288;2024-03-25T13:21:41;4.07;;;3.77;;
3831;SDS011;12460;42.662;23.288;2024-03-25T13:36:42;4.07;;;3.77;;
3831;SDS011;12460;42.662;23.288;2024-03-25T13:51:43;3.40;;;3.20;;
3831;SDS011;12460;42.662;23.288;2024-03-25T14:06:43;3.25;;;3.03;;
3831;SDS011;12460;42.662;23.288;2024-03-25T14:21:47;2.60;;;2.30;;
3831;SDS011;12460;42.662;23.288;2024-03-25T14:36:49;2.80;;;2.60;;
3831;SDS011;12460;42.662;23.288;2024-03-25T14:51:50;2.20;;;2.10;;
3831;SDS011;12460;42.662;23.288;2024-03-25T15:06:51;2.70;;;2.53;;
3831;SDS011;12460;42.662;23.288;2024-03-25T15:21:52;4.37;;;3.10;;
3831;SDS011;12460;42.662;23.288;2024-03-25T15:36:53;4.93;;;4.00;;
3831;SDS011;12460;42.662;23.288;2024-03-25T15:51:54;4.00;;;3.65;;
3831;SDS011;12460;42.662;23.288;2024-03-25T16:06:55;3.63;;;3.33;;
3831;SDS011;12460;42.662;23.288;2024-03-25T16:21:55;4.28;;;3.88;;
3831;SDS011;12460;42.662;23.288;2024-03-25T16:36:56;4.88;;;4.47;;
3831;SDS011;12460;42.662;23.288;2024-03-25T16:51:57;4.90;;;3.77;;
3831;SDS011;12460;42.662;23.288;2024-03-25T17:06:58;7.38;;;4.50;;
3831;SDS011;12460;42.662;23.288;2024-03-25T17:21:59;4.77;;;4.37;;
3831;SDS011;12460;42.662;23.288;2024-03-25T17:37:00;6.13;;;4.25;;
3831;SDS011;12460;42.662;23.288;2024-03-25T17:52:01;4.47;;;4.07;;
3831;SDS011;12460;42.662;23.288;2024-03-25T18:07:02;5.43;;;4.60;;
3831;SDS011;12460;42.662;23.288;2024-03-25T18:22:03;5.60;;;5.10;;
3831;SDS011;12460;42.662;23.288;2024-03-25T18:37:04;4.70;;;4.23;;
3831;SDS011;12460;42.662;23.288;2024-03-25T18:52:05;4.68;;;3.75;;
3831;SDS011;12460;42.662;23.288;2024-03-25T19:07:07;6.63;;;4.73;;
3831;SDS011;12460;42.662;23.288;2024-03-25T19:22:07;4.85;;;4.45;;
3831;SDS011;12460;42.662;23.288;2024-03-25T19:37:08;3.20;;;2.90;;
3831;SDS011;12460;42.662;23.288;2024-03-25T19:52:10;3.22;;;2.95;;
3831;SDS011;12460;42.662;23.288;2024-03-25T20:07:11;4.40;;;4.00;;
3831;SDS011;12460;42.662;23.288;2024-03-25T20:22:12;5.18;;;4.60;;
3831;SDS011;12460;42.662;23.288;2024-03-25T20:37:13;6.72;;;5.03;;
3831;SDS011;12460;42.662;23.288;2024-03-25T20:52:14;4.60;;;4.20;;
3831;SDS011;12460;42.662;23.288;2024-03-25T21:07:15;5.03;;;4.53;;
3831;SDS011;12460;42.662;23.288;2024-03-25T21:22:16;6.60;;;4.73;;
3831;SDS011;12460;42.662;23.288;2024-03-25T21:37:17;4.97;;;4.30;;
3831;SDS011;12460;42.662;23.288;2024-03-25T21:52:18;15.63;;;10.73;;
3831;SDS011;12460;42.662;23.288;2024-03-25T22:07:19;27.03;;;17.23;;
3831;SDS011;12460;42.662;23.288;2024-03-25T22:22:20;18.00;;;12.70;;
3831;SDS011;12460;42.662;23.288;2024-03-25T22:37:21;15.60;;;11.63;;
3831;SDS011;12460;42.662;23.288;2024-03-25T22:52:21;15.05;;;11.90;;
3831;SDS011;12460;42.662;23.288;2024-03-25T23:07:22;15.88;;;11.70;;
3831;SDS011;12460;42.662;23.288;2024-03-25T23:22:23;18.57;;;12.63;;
3831;SDS011;12460;42.662;23.288;2024-03-25T23:37:26;14.20;;;11.07;;
3831;SDS011;12460;42.662;23.288;2024-03-25T23:52:26;16.13;;;11.38;;
